»·PEaware :: UAL809 KSFO-KSNA

UAL809 :: KSFO-KSNA

FLIGHT INFORMATION

Flight Status: Arrived
Operator:
United Airlines
More flights by this operator :: More flights under this callsign
Pilot: Mike C. (16705)
Aircraft: AIRBUS A320
(A320)
More flights by this aircraft type
Origin: KSFO San Francisco Intl
United States
Destination: KSNA John Wayne-Orange Co
United States
More flights between these airports :: More routes between these airports
Route: +N0454F350 OFFSH1 MCKEY TILLT TILLT2
File this flight plan on PilotEdge
Remarks: PBN / A1B1C1D1L1O1S1 NAV / RNVD1E2A1 DOF / 171231 REG / MC7 EET / KZLA0029 RVR / 75 PER / C
Altitude:
(Current/Filed)
350ft
Speed:
(Current/Filed)
454kts
Departed: 31-Dec-17 01:33 PM
Arrived: 31-Dec-17 02:44 PM
Distance/Time
Traveled:
323nm/1:11
Distance/Time
To Go:
Arrived

Flight Plot

Page will automatically refresh every two minutes.

Flight plan parsing failed; only flown route is shown


Map Options




Map Legend


Flown Route
Filed Route
Departure Airport
Arrival Airport
Navaid (VOR, NDB)
Fix

Horizontal Profiles

Position Reports

Time Latitude Longitude Heading Altitude Ground
Speed
31-Dec-17 13:01 37.617969 -122.388459 140 27ft 0kts
31-Dec-17 13:02 37.617969 -122.388459 140 27ft 0kts
31-Dec-17 13:03 37.617969 -122.388459 140 27ft 0kts
31-Dec-17 13:04 37.617969 -122.388459 140 27ft 0kts
31-Dec-17 13:05 37.617969 -122.388459 140 27ft 0kts
31-Dec-17 13:06 37.617969 -122.388459 140 27ft 0kts
31-Dec-17 13:07 37.617969 -122.388459 140 27ft 0kts
31-Dec-17 13:08 37.617969 -122.388459 140 27ft 0kts
31-Dec-17 13:09 37.617969 -122.388459 140 27ft 0kts
31-Dec-17 13:10 37.617969 -122.388459 140 27ft 0kts
31-Dec-17 13:11 37.617969 -122.388459 140 27ft 0kts
31-Dec-17 13:12 37.617969 -122.388459 140 27ft 0kts
31-Dec-17 13:13 37.617969 -122.388459 140 27ft 0kts
31-Dec-17 13:14 37.617969 -122.388459 140 27ft 0kts
31-Dec-17 13:15 37.617969 -122.388459 140 27ft 0kts
31-Dec-17 13:16 37.617969 -122.388459 140 27ft 0kts
31-Dec-17 13:17 37.617969 -122.388459 140 27ft 0kts
31-Dec-17 13:18 37.617969 -122.388459 140 27ft 0kts
31-Dec-17 13:19 37.617969 -122.388459 140 27ft 0kts
31-Dec-17 13:20 37.617969 -122.388459 140 27ft 0kts
31-Dec-17 13:21 37.617969 -122.388459 140 27ft 0kts
31-Dec-17 13:22 37.617969 -122.388459 140 27ft 0kts
31-Dec-17 13:23 37.617992 -122.388474 119 27ft 0kts
31-Dec-17 13:24 37.617992 -122.388474 119 27ft 0kts
31-Dec-17 13:25 37.617992 -122.388474 119 27ft 0kts
31-Dec-17 13:26 37.617992 -122.388474 119 27ft 0kts
31-Dec-17 13:27 37.617990 -122.388469 119 27ft 0kts
31-Dec-17 13:28 37.618421 -122.389284 30 27ft 0kts
31-Dec-17 13:29 37.618924 -122.390313 297 27ft 7kts
31-Dec-17 13:30 37.619717 -122.392320 305 27ft 11kts
31-Dec-17 13:31 37.622499 -122.389794 70 27ft 15kts
31-Dec-17 13:32 37.620699 -122.384417 118 27ft 14kts
31-Dec-17 13:33 37.618173 -122.379731 157 27ft 20kts
31-Dec-17 13:34 37.614495 -122.381075 208 27ft 8kts
31-Dec-17 13:35 37.611474 -122.383083 207 27ft 9kts
31-Dec-17 13:36 37.609579 -122.383824 126 27ft 9kts
31-Dec-17 13:37 37.609362 -122.383368 118 27ft 0kts
31-Dec-17 13:38 37.609081 -122.382336 50 27ft 6kts
31-Dec-17 13:39 37.626860 -122.370357 28 235ft 172kts
31-Dec-17 13:40 37.676562 -122.373420 3 3087ft 237kts
31-Dec-17 13:41 37.741185 -122.386072 291 6147ft 274kts
31-Dec-17 13:42 37.715289 -122.466970 214 9239ft 276kts
31-Dec-17 13:43 37.660794 -122.515571 216 11104ft 309kts
31-Dec-17 13:44 37.572671 -122.598163 216 13172ft 354kts
31-Dec-17 13:45 37.492111 -122.672765 213 15555ft 363kts
31-Dec-17 13:46 37.410477 -122.692101 169 17318ft 378kts
31-Dec-17 13:47 37.288575 -122.657175 171 19609ft 390kts
31-Dec-17 13:48 37.199012 -122.633961 170 21138ft 399kts
31-Dec-17 13:49 37.089249 -122.605126 170 22776ft 408kts
31-Dec-17 13:50 36.976411 -122.575641 171 24246ft 417kts
31-Dec-17 13:51 36.861642 -122.545759 171 25603ft 426kts
31-Dec-17 13:52 36.744311 -122.515291 171 26846ft 434kts
31-Dec-17 13:53 36.625250 -122.484492 172 28028ft 441kts
31-Dec-17 13:54 36.504850 -122.453436 172 29115ft 448kts
31-Dec-17 13:55 36.391095 -122.388659 137 30335ft 471kts
31-Dec-17 13:56 36.307062 -122.262752 135 31441ft 475kts
31-Dec-17 13:57 36.221071 -122.139032 134 32599ft 475kts
31-Dec-17 13:58 36.135286 -122.014113 135 33605ft 475kts
31-Dec-17 13:59 36.049392 -121.890211 135 34607ft 474kts
31-Dec-17 14:00 35.963477 -121.766491 135 35170ft 473kts
31-Dec-17 14:01 35.924304 -121.710310 135 35168ft 473kts
31-Dec-17 14:02 35.838478 -121.587364 135 35164ft 474kts
31-Dec-17 14:03 35.751996 -121.464078 135 35140ft 475kts
31-Dec-17 14:04 35.665607 -121.341187 135 35137ft 476kts
31-Dec-17 14:05 35.578850 -121.218379 136 35133ft 477kts
31-Dec-17 14:06 35.491902 -121.094652 131 35203ft 480kts
31-Dec-17 14:07 35.417321 -120.959693 142 35153ft 472kts
31-Dec-17 14:08 35.317437 -120.854787 144 35161ft 473kts
31-Dec-17 14:09 35.219024 -120.747507 144 35216ft 474kts
31-Dec-17 14:10 35.119750 -120.641340 144 35222ft 475kts
31-Dec-17 14:11 35.018206 -120.539079 151 35216ft 468kts
31-Dec-17 14:12 34.909692 -120.452180 152 34435ft 468kts
31-Dec-17 14:13 34.800873 -120.363855 152 33445ft 471kts
31-Dec-17 14:14 34.691025 -120.275543 152 32453ft 473kts
31-Dec-17 14:15 34.581234 -120.187632 152 31463ft 474kts
31-Dec-17 14:16 34.470938 -120.099605 152 30469ft 472kts
31-Dec-17 14:17 34.362255 -120.013136 151 29477ft 464kts
31-Dec-17 14:18 34.255015 -119.928125 151 28484ft 458kts
31-Dec-17 14:19 34.149044 -119.844327 151 27488ft 451kts
31-Dec-17 14:20 34.054572 -119.747195 125 26490ft 457kts
31-Dec-17 14:21 33.990464 -119.615696 123 25499ft 450kts
31-Dec-17 14:22 33.925694 -119.488432 123 24504ft 442kts
31-Dec-17 14:23 33.864548 -119.365402 122 23513ft 421kts
31-Dec-17 14:24 33.805509 -119.245210 122 21515ft 411kts
31-Dec-17 14:25 33.748153 -119.129326 122 19478ft 397kts
31-Dec-17 14:26 33.692741 -119.017686 122 17459ft 383kts
31-Dec-17 14:27 33.638962 -118.909658 122 15458ft 369kts
31-Dec-17 14:28 33.587149 -118.805831 121 13527ft 356kts
31-Dec-17 14:29 33.558470 -118.695444 99 11975ft 334kts
31-Dec-17 14:30 33.542244 -118.592290 100 10961ft 309kts
31-Dec-17 14:31 33.525856 -118.491591 100 9363ft 306kts
31-Dec-17 14:32 33.519612 -118.390982 90 7911ft 298kts
31-Dec-17 14:33 33.529154 -118.295599 66 6743ft 279kts
31-Dec-17 14:34 33.556699 -118.211670 68 6251ft 283kts
31-Dec-17 14:35 33.593097 -118.131867 53 5776ft 278kts
31-Dec-17 14:36 33.634650 -118.057491 55 4983ft 256kts
31-Dec-17 14:37 33.671142 -117.991911 55 4997ft 229kts
31-Dec-17 14:38 33.718051 -117.945727 31 5038ft 207kts
31-Dec-17 14:39 33.766299 -117.907607 31 5012ft 207kts
31-Dec-17 14:40 33.814399 -117.869579 31 4997ft 207kts
31-Dec-17 14:41 33.862353 -117.831641 31 4993ft 207kts
31-Dec-17 14:42 33.910531 -117.793307 35 4990ft 207kts
31-Dec-17 14:43 33.913807 -117.731869 104 4761ft 188kts
31-Dec-17 14:44 33.873678 -117.728218 221 4072ft 182kts
31-Dec-17 14:45 33.835055 -117.767683 209 3654ft 181kts
31-Dec-17 14:46 33.790021 -117.796295 206 2558ft 184kts
31-Dec-17 14:47 33.747346 -117.823409 207 1569ft 151kts
31-Dec-17 14:48 33.712853 -117.845287 208 779ft 138kts
31-Dec-17 14:49 33.679059 -117.866642 208 71ft 133kts
31-Dec-17 14:50 33.669064 -117.871321 81 70ft 7kts
31-Dec-17 14:51 33.671640 -117.868281 30 70ft 18kts
31-Dec-17 14:52 33.675532 -117.865442 29 70ft 10kts
31-Dec-17 14:53 33.678310 -117.863870 29 70ft 10kts
31-Dec-17 14:54 33.679928 -117.862729 27 70ft 4kts
31-Dec-17 14:55 33.680638 -117.861457 158 70ft 5kts
31-Dec-17 14:56 33.680688 -117.861502 140 70ft 0kts
31-Dec-17 14:57 33.680688 -117.861502 140 70ft 0kts

Navigation Log

Ident Type
Flight plan parsing failed, navigation log unavailable